createdAt,value
2019-05-10T00:00:17.346Z,12.20
2019-05-10T00:03:03.192Z,12.10
2019-05-10T00:05:49.025Z,12.20
2019-05-10T00:08:34.742Z,12.20
2019-05-10T00:11:33.991Z,12.20
2019-05-10T00:14:41.159Z,12.10
2019-05-10T00:17:20.564Z,12.10
2019-05-10T00:19:47.989Z,12.10
2019-05-10T00:22:15.373Z,12.10
2019-05-10T00:24:42.863Z,12.10
2019-05-10T00:27:10.390Z,12.20
2019-05-10T00:29:37.947Z,12.20
2019-05-10T00:32:05.706Z,12.20
2019-05-10T00:34:33.269Z,12.20
2019-05-10T00:37:00.483Z,12.20
2019-05-10T00:39:27.531Z,12.20
2019-05-10T00:41:54.662Z,12.20
2019-05-10T00:44:22.767Z,12.20
2019-05-10T00:46:50.826Z,12.20
2019-05-10T00:49:19.703Z,12.10
2019-05-10T00:51:47.920Z,12.10
2019-05-10T00:54:15.603Z,12.10
2019-05-10T00:56:43.766Z,12.10
2019-05-10T00:59:12.014Z,12.20
2019-05-10T01:01:40.419Z,12.10
2019-05-10T01:04:08.674Z,12.10
2019-05-10T01:06:36.142Z,12.10
2019-05-10T01:09:05.680Z,12.10
2019-05-10T01:11:34.918Z,12.10
2019-05-10T01:14:02.182Z,12.10
2019-05-10T01:16:29.910Z,12.10
2019-05-10T01:18:57.402Z,12.10
2019-05-10T01:21:24.677Z,12.00
2019-05-10T01:23:52.301Z,12.10
2019-05-10T01:26:19.470Z,12.10
2019-05-10T01:28:46.953Z,12.00
2019-05-10T01:31:15.415Z,12.10
2019-05-10T01:33:43.718Z,12.10
2019-05-10T01:36:10.758Z,12.00
2019-05-10T01:38:38.218Z,12.10
2019-05-10T01:41:05.762Z,12.10
2019-05-10T01:43:32.680Z,12.10
2019-05-10T01:46:00.245Z,12.20
2019-05-10T01:48:28.386Z,12.10
2019-05-10T01:50:56.354Z,12.10
2019-05-10T01:53:24.286Z,12.00
2019-05-10T01:55:52.956Z,12.00
2019-05-10T01:58:21.370Z,12.10
2019-05-10T02:00:49.106Z,12.10
2019-05-10T02:03:16.413Z,12.00
2019-05-10T02:05:43.685Z,12.00
2019-05-10T02:08:11.606Z,12.10
2019-05-10T02:10:40.817Z,12.10
2019-05-10T02:13:07.878Z,12.10
2019-05-10T02:15:34.886Z,12.10
2019-05-10T02:18:02.646Z,12.10
2019-05-10T02:20:32.249Z,12.10
2019-05-10T02:22:59.838Z,12.10
2019-05-10T02:25:27.465Z,12.00
2019-05-10T02:27:54.974Z,12.00
2019-05-10T02:30:22.674Z,12.00
2019-05-10T02:32:49.841Z,12.00
2019-05-10T02:35:17.731Z,12.10
2019-05-10T02:37:46.298Z,12.10
2019-05-10T02:40:15.067Z,12.10
2019-05-10T02:42:42.831Z,12.10
2019-05-10T02:45:10.796Z,12.00
2019-05-10T02:47:38.223Z,12.00
2019-05-10T02:50:05.857Z,12.00
2019-05-10T02:52:33.807Z,12.00
2019-05-10T02:55:02.481Z,12.00
2019-05-10T02:57:31.100Z,11.90
2019-05-10T03:00:02.080Z,12.00
2019-05-10T03:02:31.747Z,12.00
2019-05-10T03:05:01.794Z,12.00
2019-05-10T03:07:32.301Z,11.90
2019-05-10T03:10:03.050Z,11.90
2019-05-10T03:12:30.959Z,11.90
2019-05-10T03:14:58.543Z,11.90
2019-05-10T03:17:27.111Z,11.90
2019-05-10T03:19:55.019Z,11.90
2019-05-10T03:22:25.048Z,11.80
2019-05-10T03:24:54.271Z,11.80
2019-05-10T03:27:21.870Z,11.80
2019-05-10T03:29:49.004Z,11.80
2019-05-10T03:32:16.499Z,11.70
2019-05-10T03:34:43.683Z,11.60
2019-05-10T03:37:12.067Z,11.60
2019-05-10T03:39:39.232Z,11.60
2019-05-10T03:42:06.545Z,11.60
2019-05-10T03:44:35.130Z,11.60
2019-05-10T03:47:03.378Z,11.50
2019-05-10T03:49:31.720Z,11.60
2019-05-10T03:51:59.274Z,11.50
2019-05-10T03:54:26.831Z,11.50
2019-05-10T03:57:11.095Z,11.30
2019-05-10T03:59:24.560Z,11.30
2019-05-10T04:01:52.208Z,11.40
2019-05-10T04:04:19.430Z,11.40
2019-05-10T04:06:48.013Z,11.40
2019-05-10T04:09:16.643Z,11.30
2019-05-10T04:11:44.193Z,11.20
2019-05-10T04:14:11.384Z,11.20
2019-05-10T04:16:38.991Z,11.20
2019-05-10T04:19:06.750Z,11.20
2019-05-10T04:21:36.435Z,11.20
2019-05-10T04:24:05.363Z,11.20
2019-05-10T04:26:33.002Z,11.20
2019-05-10T04:29:01.372Z,11.20
2019-05-10T04:31:30.261Z,11.10
2019-05-10T04:33:58.889Z,11.20
2019-05-10T04:36:26.390Z,11.20
2019-05-10T04:38:55.403Z,11.20
2019-05-10T04:41:22.471Z,11.20
2019-05-10T04:43:50.849Z,11.20
2019-05-10T04:46:18.025Z,11.20
2019-05-10T04:48:45.791Z,11.20
2019-05-10T04:51:14.125Z,11.20
2019-05-10T04:53:42.498Z,11.30
2019-05-10T04:56:10.082Z,11.40
2019-05-10T04:58:39.172Z,11.40
2019-05-10T05:01:06.542Z,11.40
2019-05-10T05:03:35.473Z,11.40
2019-05-10T05:06:02.581Z,11.50
2019-05-10T05:08:31.602Z,11.50
2019-05-10T05:11:00.163Z,11.50
2019-05-10T05:13:27.817Z,11.60
2019-05-10T05:15:55.141Z,11.60
2019-05-10T05:18:22.683Z,11.60
2019-05-10T05:20:50.544Z,11.60
2019-05-10T05:23:18.766Z,11.60
2019-05-10T05:25:45.979Z,11.60
2019-05-10T05:28:18.436Z,11.60
2019-05-10T05:30:45.939Z,11.60
2019-05-10T05:33:13.599Z,11.60
2019-05-10T05:35:41.307Z,11.60
2019-05-10T05:38:10.694Z,11.60
2019-05-10T05:40:38.336Z,11.70
2019-05-10T05:43:08.095Z,11.70
2019-05-10T05:45:35.893Z,11.70
2019-05-10T05:48:03.609Z,11.70
2019-05-10T05:50:31.212Z,11.70
2019-05-10T05:52:58.406Z,11.70
2019-05-10T05:55:30.526Z,11.70
2019-05-10T05:57:59.172Z,11.80
2019-05-10T06:00:26.755Z,11.80
2019-05-10T06:02:54.255Z,11.80
2019-05-10T06:05:34.180Z,11.80
2019-05-10T06:07:53.020Z,11.90
2019-05-10T06:10:20.871Z,11.90
2019-05-10T06:12:50.724Z,11.90
2019-05-10T06:15:17.605Z,11.90
2019-05-10T06:17:55.741Z,11.90
2019-05-10T06:20:15.914Z,12.00
2019-05-10T06:22:45.574Z,11.90
2019-05-10T06:25:13.012Z,12.00
2019-05-10T06:27:41.094Z,12.00
2019-05-10T06:30:10.787Z,12.00
2019-05-10T06:32:37.954Z,12.10
2019-05-10T06:35:06.090Z,12.10
2019-05-10T06:37:33.567Z,12.10
2019-05-10T06:40:00.874Z,12.10
2019-05-10T06:42:28.832Z,12.10
2019-05-10T06:44:57.992Z,12.10
2019-05-10T06:47:26.411Z,12.10
2019-05-10T06:49:54.916Z,12.10
2019-05-10T06:52:28.018Z,12.20
2019-05-10T06:54:52.202Z,12.20
2019-05-10T06:57:19.662Z,12.20
2019-05-10T06:59:47.285Z,12.10
2019-05-10T07:02:19.991Z,12.20
2019-05-10T07:04:44.295Z,12.20
2019-05-10T07:07:22.065Z,12.20
2019-05-10T07:10:01.624Z,12.30
2019-05-10T07:12:15.221Z,12.30
2019-05-10T07:14:45.546Z,12.30
2019-05-10T07:17:09.930Z,12.40
2019-05-10T07:19:41.935Z,12.40
2019-05-10T07:22:06.708Z,12.40
2019-05-10T07:24:34.389Z,12.40
2019-05-10T07:27:03.399Z,12.40
2019-05-10T07:29:41.876Z,12.50
2019-05-10T07:32:00.929Z,12.60
2019-05-10T07:34:28.423Z,12.50
2019-05-10T07:36:55.486Z,12.50
2019-05-10T07:39:22.921Z,12.50
2019-05-10T07:41:52.039Z,12.60
2019-05-10T07:44:19.565Z,12.60
2019-05-10T07:46:53.240Z,12.60
2019-05-10T07:49:15.874Z,12.70
2019-05-10T07:51:43.530Z,12.70
2019-05-10T07:54:11.423Z,12.80
2019-05-10T07:56:45.344Z,12.80
2019-05-10T07:59:08.842Z,12.80
2019-05-10T08:01:37.282Z,12.80
2019-05-10T08:04:05.861Z,12.80
2019-05-10T08:06:40.381Z,12.80
2019-05-10T08:09:07.089Z,12.90
2019-05-10T08:11:34.574Z,13.00
2019-05-10T08:14:06.101Z,13.00
2019-05-10T08:16:32.397Z,13.00
2019-05-10T08:19:00.922Z,13.00
2019-05-10T08:21:32.256Z,13.00
2019-05-10T08:24:05.664Z,13.10
2019-05-10T08:26:29.278Z,13.00
2019-05-10T08:28:56.462Z,13.00
2019-05-10T08:31:26.220Z,13.00
2019-05-10T08:33:58.897Z,13.00
2019-05-10T08:36:24.766Z,13.10
2019-05-10T08:39:03.835Z,13.10
2019-05-10T08:41:22.435Z,13.00
2019-05-10T08:43:52.412Z,13.00
2019-05-10T08:46:28.603Z,13.10
2019-05-10T08:48:51.354Z,13.10
2019-05-10T08:51:22.601Z,13.10
2019-05-10T08:53:55.901Z,13.10
2019-05-10T08:56:21.609Z,13.20
2019-05-10T08:58:48.707Z,13.20
2019-05-10T09:01:26.843Z,13.20
2019-05-10T09:03:47.083Z,13.20
2019-05-10T09:06:17.148Z,13.10
2019-05-10T09:08:44.673Z,13.20
2019-05-10T09:11:11.851Z,13.20
2019-05-10T09:13:42.490Z,13.20
2019-05-10T09:16:09.657Z,13.20
2019-05-10T09:18:38.084Z,13.10
2019-05-10T09:21:09.105Z,13.20
2019-05-10T09:23:36.996Z,13.20
2019-05-10T09:26:12.007Z,13.20
2019-05-10T09:28:33.551Z,13.20
2019-05-10T09:31:16.536Z,13.20
2019-05-10T09:33:32.030Z,13.20
2019-05-10T09:35:59.507Z,13.10
2019-05-10T09:38:28.603Z,13.20
2019-05-10T09:40:56.390Z,13.30
2019-05-10T09:43:24.412Z,13.40
2019-05-10T09:45:53.076Z,13.40
2019-05-10T09:48:22.815Z,13.40
2019-05-10T09:50:55.024Z,13.30
2019-05-10T09:53:26.286Z,13.40
2019-05-10T09:55:55.112Z,13.40
2019-05-10T09:58:22.130Z,13.40
2019-05-10T10:00:48.606Z,13.40
2019-05-10T10:03:16.537Z,13.40
2019-05-10T10:05:44.430Z,13.40
2019-05-10T10:08:11.922Z,13.40
2019-05-10T10:10:39.922Z,13.40
2019-05-10T10:13:13.184Z,13.40
2019-05-10T10:15:37.370Z,13.40
2019-05-10T10:18:04.858Z,13.40
2019-05-10T10:20:36.102Z,13.40
2019-05-10T10:23:02.924Z,13.50
2019-05-10T10:25:35.177Z,13.50
2019-05-10T10:28:00.226Z,13.50
2019-05-10T10:30:31.271Z,13.50
2019-05-10T10:32:58.074Z,13.60
2019-05-10T10:35:27.594Z,13.60
2019-05-10T10:37:57.409Z,13.70
2019-05-10T10:40:24.617Z,13.80
2019-05-10T10:42:51.629Z,13.80
2019-05-10T10:45:19.808Z,13.90
2019-05-10T10:47:47.838Z,13.90
2019-05-10T10:50:17.218Z,14.00
2019-05-10T10:52:45.202Z,14.00
2019-05-10T10:55:14.421Z,14.00
2019-05-10T10:57:42.499Z,14.00
2019-05-10T11:00:11.372Z,14.10
2019-05-10T11:02:41.421Z,14.20
2019-05-10T11:05:08.574Z,14.20
2019-05-10T11:07:41.045Z,14.30
2019-05-10T11:10:15.231Z,14.20
2019-05-10T11:12:36.309Z,14.30
2019-05-10T11:15:04.834Z,14.30
2019-05-10T11:17:32.174Z,14.40
2019-05-10T11:20:00.579Z,14.50
2019-05-10T11:22:28.698Z,14.40
2019-05-10T11:25:01.270Z,14.50
2019-05-10T11:27:26.574Z,14.60
2019-05-10T11:29:55.183Z,14.60
2019-05-10T11:32:22.661Z,14.60
2019-05-10T11:34:50.086Z,14.70
2019-05-10T11:37:30.309Z,14.70
2019-05-10T11:39:50.448Z,14.80
2019-05-10T11:42:20.607Z,14.80
2019-05-10T11:44:50.898Z,14.90
2019-05-10T11:47:23.946Z,14.90
2019-05-10T11:49:47.631Z,14.90
2019-05-10T11:52:15.371Z,15.00
2019-05-10T11:54:43.534Z,15.00
2019-05-10T11:57:13.605Z,15.00
2019-05-10T11:59:41.560Z,15.10
2019-05-10T12:02:10.575Z,15.10
2019-05-10T12:07:09.812Z,15.20
2019-05-10T12:09:37.097Z,15.20
2019-05-10T12:12:05.870Z,15.10
2019-05-10T12:14:33.138Z,15.20
2019-05-10T12:17:02.271Z,15.00
2019-05-10T12:22:04.526Z,15.10
2019-05-10T12:24:45.097Z,15.20
2019-05-10T12:26:06.159Z,15.20
2019-05-10T12:26:26.526Z,14.90
2019-05-10T12:27:22.008Z,15.10
2019-05-10T12:29:31.522Z,15.00
2019-05-10T12:31:58.186Z,15.20
2019-05-10T12:34:25.668Z,15.30
2019-05-10T12:36:57.532Z,15.30
2019-05-10T12:39:22.651Z,15.40
2019-05-10T12:41:52.957Z,15.40
2019-05-10T12:44:20.526Z,15.20
2019-05-10T12:46:50.974Z,15.30
2019-05-10T12:49:21.347Z,15.40
2019-05-10T12:51:51.221Z,15.50
2019-05-10T12:54:18.505Z,15.50
2019-05-10T12:56:47.978Z,15.50
2019-05-10T12:59:15.208Z,15.50
2019-05-10T13:01:42.382Z,15.50
2019-05-10T13:04:16.669Z,15.50
2019-05-10T13:06:39.218Z,15.30
2019-05-10T13:09:08.270Z,15.30
2019-05-10T13:11:36.397Z,15.30
2019-05-10T13:14:07.232Z,15.30
2019-05-10T13:16:35.033Z,15.10
2019-05-10T13:19:02.091Z,15.10
2019-05-10T13:21:31.262Z,15.10
2019-05-10T13:23:58.601Z,15.10
2019-05-10T13:26:26.055Z,15.00
2019-05-10T13:28:54.706Z,15.00
2019-05-10T13:31:22.434Z,15.00
2019-05-10T13:33:49.610Z,15.00
2019-05-10T13:36:17.789Z,14.90
2019-05-10T13:38:48.995Z,14.90
2019-05-10T13:41:17.777Z,14.80
2019-05-10T13:43:44.287Z,14.90
2019-05-10T13:46:12.069Z,14.80
2019-05-10T13:48:40.482Z,14.90
2019-05-10T13:51:08.745Z,14.80
2019-05-10T13:53:35.870Z,14.80
2019-05-10T13:56:03.561Z,14.80
2019-05-10T13:58:30.705Z,14.80
2019-05-10T14:00:59.150Z,14.70
2019-05-10T14:03:26.730Z,14.80
2019-05-10T14:05:53.937Z,14.80
2019-05-10T14:08:21.480Z,14.80
2019-05-10T14:10:49.776Z,14.80
2019-05-10T14:13:17.249Z,14.90
2019-05-10T14:15:45.632Z,14.90
2019-05-10T14:18:13.527Z,14.90
2019-05-10T14:20:40.730Z,14.90
2019-05-10T14:23:08.274Z,14.90
2019-05-10T14:25:38.930Z,14.90
2019-05-10T14:28:09.585Z,14.90
2019-05-10T14:30:36.689Z,14.90
2019-05-10T14:33:08.648Z,14.90
2019-05-10T14:35:33.153Z,14.90
2019-05-10T14:38:08.800Z,14.90
2019-05-10T14:40:30.857Z,14.90
2019-05-10T14:42:58.998Z,14.90
2019-05-10T14:45:26.587Z,14.90
2019-05-10T14:47:53.843Z,14.90
2019-05-10T14:50:26.117Z,14.90
2019-05-10T14:52:51.162Z,14.90
2019-05-10T14:55:18.173Z,14.80
2019-05-10T14:57:45.866Z,14.90
2019-05-10T15:00:13.201Z,14.80
2019-05-10T15:02:41.602Z,14.80
2019-05-10T15:05:16.016Z,14.80
2019-05-10T15:07:38.785Z,14.80
2019-05-10T15:10:07.659Z,14.80
2019-05-10T15:12:35.370Z,14.80
2019-05-10T15:15:03.087Z,14.80
2019-05-10T15:17:30.771Z,14.80
2019-05-10T15:20:00.056Z,14.80
2019-05-10T15:22:28.735Z,14.80
2019-05-10T15:24:55.822Z,14.80
2019-05-10T15:27:24.052Z,14.80
2019-05-10T15:29:51.234Z,14.90
2019-05-10T15:32:18.754Z,14.90
2019-05-10T15:35:04.366Z,14.90
2019-05-10T15:37:17.654Z,14.90
2019-05-10T15:39:45.965Z,14.90
2019-05-10T15:42:13.918Z,14.90
2019-05-10T15:44:41.078Z,14.90
2019-05-10T15:47:14.669Z,14.90
2019-05-10T15:49:38.158Z,14.90
2019-05-10T15:52:16.700Z,14.90
2019-05-10T15:54:38.149Z,14.80
2019-05-10T15:57:03.896Z,14.90
2019-05-10T15:59:31.605Z,14.90
2019-05-10T16:01:59.927Z,14.90
2019-05-10T16:04:29.252Z,14.90
2019-05-10T16:06:57.068Z,14.90
2019-05-10T16:09:24.489Z,14.90
2019-05-10T16:11:55.915Z,14.90
2019-05-10T16:14:21.938Z,14.80
2019-05-10T16:16:49.165Z,14.90
2019-05-10T16:19:18.711Z,14.80
2019-05-10T16:21:46.543Z,14.90
2019-05-10T16:24:24.930Z,14.90
2019-05-10T16:26:44.742Z,14.90
2019-05-10T16:29:11.946Z,14.90
2019-05-10T16:31:39.459Z,14.90
2019-05-10T16:34:06.926Z,14.90
2019-05-10T16:36:34.113Z,14.80
2019-05-10T16:39:03.008Z,14.90
2019-05-10T16:41:30.722Z,14.90
2019-05-10T16:44:00.113Z,14.90
2019-05-10T16:46:29.346Z,14.90
2019-05-10T16:48:56.525Z,14.90
2019-05-10T16:51:23.707Z,14.80
2019-05-10T16:53:53.356Z,14.80
2019-05-10T16:56:23.535Z,14.80
2019-05-10T16:58:54.974Z,14.80
2019-05-10T17:01:27.441Z,14.80
2019-05-10T17:04:00.153Z,14.80
2019-05-10T17:06:28.005Z,14.90
2019-05-10T17:08:58.174Z,14.90
2019-05-10T17:11:27.198Z,14.80
2019-05-10T17:13:56.617Z,14.80
2019-05-10T17:16:26.792Z,14.80
2019-05-10T17:18:56.995Z,14.80
2019-05-10T17:21:26.371Z,14.80
2019-05-10T17:23:56.949Z,14.80
2019-05-10T17:26:27.576Z,14.80
2019-05-10T17:28:56.912Z,14.80
2019-05-10T17:31:26.967Z,14.80
2019-05-10T17:33:57.242Z,14.80
2019-05-10T17:36:28.200Z,14.80
2019-05-10T17:38:56.603Z,14.80
2019-05-10T17:41:26.958Z,14.80
2019-05-10T17:43:56.307Z,14.80
2019-05-10T17:46:25.627Z,14.80
2019-05-10T17:48:55.608Z,14.80
2019-05-10T17:51:27.179Z,14.80
2019-05-10T17:54:01.458Z,14.80
2019-05-10T17:56:32.721Z,14.80
2019-05-10T17:58:57.498Z,14.70
2019-05-10T18:01:24.667Z,14.80
2019-05-10T18:03:52.067Z,14.70
2019-05-10T18:06:24.178Z,14.70
2019-05-10T18:08:48.210Z,14.70
2019-05-10T18:11:15.550Z,14.70
2019-05-10T18:13:42.914Z,14.70
2019-05-10T18:16:11.012Z,14.70
2019-05-10T18:18:46.283Z,14.70
2019-05-10T18:21:07.418Z,14.70
2019-05-10T18:23:34.908Z,14.70
2019-05-10T18:26:02.978Z,14.70
2019-05-10T18:28:30.030Z,14.70
2019-05-10T18:30:57.463Z,14.70
2019-05-10T18:33:24.634Z,14.70
2019-05-10T18:35:52.685Z,14.70
2019-05-10T18:38:21.005Z,14.70
2019-05-10T18:40:48.726Z,14.70
2019-05-10T18:43:15.900Z,14.70
2019-05-10T18:45:43.502Z,14.60
2019-05-10T18:48:10.655Z,14.60
2019-05-10T18:50:39.553Z,14.60
2019-05-10T18:53:08.438Z,14.50
2019-05-10T18:55:35.598Z,14.50
2019-05-10T18:58:02.759Z,14.50
2019-05-10T19:00:30.219Z,14.40
2019-05-10T19:02:57.730Z,14.40
2019-05-10T19:05:31.200Z,14.30
2019-05-10T19:08:03.248Z,14.30
2019-05-10T19:10:23.171Z,14.30
2019-05-10T19:13:00.088Z,14.20
2019-05-10T19:15:20.138Z,14.10
2019-05-10T19:17:47.986Z,14.20
2019-05-10T19:20:18.241Z,14.20
2019-05-10T19:22:44.791Z,14.20
2019-05-10T19:25:14.270Z,14.20
2019-05-10T19:27:44.811Z,14.20
2019-05-10T19:30:13.254Z,14.20
2019-05-10T19:32:40.315Z,14.20
2019-05-10T19:35:07.663Z,14.00
2019-05-10T19:37:35.003Z,14.10
2019-05-10T19:40:02.178Z,14.10
2019-05-10T19:42:31.682Z,14.10
2019-05-10T19:44:58.889Z,14.10
2019-05-10T19:47:26.042Z,14.10
2019-05-10T19:49:53.558Z,14.10
2019-05-10T19:52:25.880Z,14.10
2019-05-10T19:54:50.178Z,14.10
2019-05-10T19:57:18.894Z,14.10
2019-05-10T19:59:48.756Z,14.10
2019-05-10T20:02:15.405Z,14.00
2019-05-10T20:04:42.587Z,14.00
2019-05-10T20:07:10.531Z,14.00
2019-05-10T20:09:37.922Z,14.00
2019-05-10T20:12:05.146Z,14.00
2019-05-10T20:14:32.177Z,13.90
2019-05-10T20:16:59.775Z,13.90
2019-05-10T20:19:26.825Z,13.90
2019-05-10T20:21:53.974Z,13.90
2019-05-10T20:24:21.046Z,13.90
2019-05-10T20:26:48.219Z,13.80
2019-05-10T20:29:15.287Z,13.90
2019-05-10T20:31:42.178Z,13.80
2019-05-10T20:34:09.549Z,13.80
2019-05-10T20:36:36.583Z,13.80
2019-05-10T20:39:05.946Z,13.80
2019-05-10T20:41:33.729Z,13.80
2019-05-10T20:44:01.698Z,13.80
2019-05-10T20:46:29.186Z,13.80
2019-05-10T20:48:56.765Z,13.80
2019-05-10T20:51:23.838Z,13.70
2019-05-10T20:53:52.002Z,13.70
2019-05-10T20:56:19.164Z,13.70
2019-05-10T20:58:46.217Z,13.70
2019-05-10T21:01:13.539Z,13.70
2019-05-10T21:03:40.733Z,13.70
2019-05-10T21:06:08.506Z,13.70
2019-05-10T21:08:35.858Z,13.70
2019-05-10T21:11:03.063Z,13.70
2019-05-10T21:13:30.330Z,13.80
2019-05-10T21:15:57.519Z,13.80
2019-05-10T21:18:24.558Z,13.80
2019-05-10T21:20:53.098Z,13.80
2019-05-10T21:23:20.258Z,13.70
2019-05-10T21:25:47.821Z,13.80
2019-05-10T21:28:15.402Z,13.80
2019-05-10T21:30:42.471Z,13.70
2019-05-10T21:33:09.554Z,13.70
2019-05-10T21:35:36.827Z,13.70
2019-05-10T21:38:05.389Z,13.70
2019-05-10T21:40:32.903Z,13.60
2019-05-10T21:43:00.427Z,13.60
2019-05-10T21:45:27.335Z,13.70
2019-05-10T21:47:54.388Z,13.70
2019-05-10T21:50:22.030Z,13.60
2019-05-10T21:52:49.769Z,13.60
2019-05-10T21:55:16.962Z,13.60
2019-05-10T21:57:44.225Z,13.60
2019-05-10T22:00:12.369Z,13.50
2019-05-10T22:02:40.091Z,13.50
2019-05-10T22:05:08.374Z,13.50
2019-05-10T22:07:35.432Z,13.50
2019-05-10T22:10:03.158Z,13.50
2019-05-10T22:12:30.215Z,13.60
2019-05-10T22:14:57.154Z,13.50
2019-05-10T22:17:24.479Z,13.60
2019-05-10T22:19:51.546Z,13.50
2019-05-10T22:22:18.582Z,13.50
2019-05-10T22:24:46.422Z,13.50
2019-05-10T22:27:13.472Z,13.60
2019-05-10T22:29:40.959Z,13.50
2019-05-10T22:32:08.255Z,13.50
2019-05-10T22:34:35.310Z,13.50
2019-05-10T22:37:02.378Z,13.50
2019-05-10T22:39:29.553Z,13.50
2019-05-10T22:41:57.146Z,13.40
2019-05-10T22:44:24.246Z,13.50
2019-05-10T22:46:51.486Z,13.50
2019-05-10T22:49:18.627Z,13.50
2019-05-10T22:51:45.785Z,13.50
2019-05-10T22:54:12.927Z,13.50
2019-05-10T22:56:40.390Z,13.50
2019-05-10T22:59:07.642Z,13.50
2019-05-10T23:01:34.694Z,13.50
2019-05-10T23:04:01.855Z,13.40
2019-05-10T23:06:29.449Z,13.50
2019-05-10T23:08:56.373Z,13.50
2019-05-10T23:11:23.290Z,13.50
2019-05-10T23:13:50.643Z,13.40
2019-05-10T23:16:17.900Z,13.40
2019-05-10T23:18:44.955Z,13.40
2019-05-10T23:21:12.406Z,13.50
2019-05-10T23:23:39.582Z,13.50
2019-05-10T23:26:06.952Z,13.50
2019-05-10T23:28:34.470Z,13.50
2019-05-10T23:31:01.723Z,13.50
2019-05-10T23:33:28.806Z,13.50
2019-05-10T23:35:55.886Z,13.40
2019-05-10T23:38:23.170Z,13.50
2019-05-10T23:40:50.225Z,13.50
2019-05-10T23:43:17.878Z,13.40
2019-05-10T23:45:45.355Z,13.40
2019-05-10T23:48:12.640Z,13.40
2019-05-10T23:50:41.841Z,13.40
2019-05-10T23:53:09.070Z,13.40
2019-05-10T23:55:36.258Z,13.30
2019-05-10T23:58:03.478Z,13.30
